• Join FlightAware (Why Join?)
  • Login
  • US Flag 
Gobble Gobble! 
03:54PM EST


 

Airport Tracker/Info


-or-


 

Live Flight TrackerFlight Track Log ✈ GJS3618 ✈ 03-May-2013 ✈ KDEN - KGRR

Flight Track Log - Related Links

Times and Time Zones

All times are in EDT time to prevent confusion due to time zone crossing. See the GJS3618 flight status page for this flight to view local times or setup timezone preferences in your user account.

Time Position Orientation Groundspeed Altitude Reporting Facility
EDT Latitude Longitude Course Direction KTS MPH feet Rate Location/Type
10:13PM 39.8758 -104.5897 66° East 165 190 6,900  Level Denver Center
10:13PM 39.8833 -104.5500 76° East 199 229 7,700 1,620 Climbing Denver TRACON
10:15PM 39.8808 -104.4172 91° East 276 318 10,300 1,500 Climbing Denver Center
10:16PM 39.8811 -104.2911 90° East 336 387 11,700 1,440 Climbing Denver Center
10:17PM 39.9144 -104.1669 71° East 362 417 13,300 1,560 Climbing Denver Center
10:18PM 39.9774 -103.9513 66° East  Level FlightAware Approximate
10:18PM 39.9442 -104.0186 75° East 393 452 15,000  Level Denver Center
10:19PM 39.9733 -103.8778 75° East 403 464 17,000 1,740 Climbing Denver Center
10:20PM 40.0044 -103.7272 75° East 407 468 18,600 1,560 Climbing Denver Center
10:21PM 40.0347 -103.5850 74° East 406 467 20,300 1,500 Climbing Denver Center
10:22PM 40.0644 -103.4339 76° East 424 488 21,700 1,320 Climbing Denver Center
10:23PM 40.0956 -103.2828 75° East 427 491 23,100 1,260 Climbing Denver Center
10:24PM 40.1278 -103.1272 75° East 437 503 24,400 1,200 Climbing Denver Center
10:25PM 40.1586 -102.9717 75° East 441 507 25,700 1,260 Climbing Denver Center
10:26PM 40.1897 -102.8136 76° East 444 511 27,000 1,140 Climbing Denver Center
10:27PM 40.2214 -102.6531 75° East 447 514 28,100 960 Climbing Denver Center
10:28PM 40.2564 -102.4758 75° East 449 517 29,000 780 Climbing Denver Center
10:29PM 40.2856 -102.3192 76° East 460 529 29,800 660 Climbing Denver Center
10:30PM 40.3114 -102.1900 75° East 462 532 30,400 780 Climbing Denver Center
10:31PM 40.3508 -101.9778 76° East 469 540 31,500 960 Climbing Denver Center
10:32PM 40.3864 -101.7933 76° East 469 540 32,400 780 Climbing Denver Center
10:33PM 40.4164 -101.6342 76° East 471 542 33,100 780 Climbing Denver Center
10:34PM 40.4539 -101.4500 75° East 469 540 34,100 840 Climbing Denver Center
10:35PM 40.4908 -101.2953 73° East 465 535 34,900 780 Climbing Denver Center
10:36PM 40.5250 -101.1433 73° East 456 525 35,800 840 Climbing Denver Center
10:37PM 40.5647 -100.9686 73° East 450 518 36,700 840 Climbing Denver Center
10:38PM 40.5972 -100.8217 74° East 443 510 37,600 780 Climbing Denver Center
10:39PM 40.6347 -100.6533 74° East 436 502 38,300 480 Climbing Denver Center
10:40PM 40.6661 -100.5100 74° East 432 497 38,700 300 Climbing Denver Center
10:41PM 40.7031 -100.3444 74° East 425 489 39,000 120 Climbing Denver Center
10:42PM 40.7339 -100.1972 75° East 434 499 39,000  Level Denver Center
10:43PM 40.7719 -100.0247 74° East 440 506 39,000  Level Denver Center
10:44PM 40.8036 -99.8733 75° East 447 514 39,000  Level Denver Center
10:45PM 40.8361 -99.7239 74° East 453 521 39,000  Level Denver Center
10:46PM 40.8767 -99.5306 74° East 456 525 39,000  Level Denver Center
10:47PM 40.9042 -99.4014 74° East 458 527 39,000  Level Denver Center
10:49PM 40.9439 -99.2086 75° East 454 522 39,000  Level Denver Center
10:50PM 40.9756 -99.0536 75° East 451 519 39,000  Level Denver Center
10:51PM 41.0119 -98.8742 75° East 452 520 39,000  Level Denver Center
10:52PM 41.0406 -98.7336 75° East 454 522 39,000  Level Denver Center
10:53PM 41.0792 -98.5444 75° East 453 521 39,000  Level Denver Center
10:54PM 41.1108 -98.3858 75° East 450 518 39,000  Level Denver Center
10:55PM 41.1478 -98.1939 76° East 450 518 39,000  Level Minneapolis Center
10:56PM 41.1789 -98.0350 75° East 448 516 39,000  Level Minneapolis Center
10:57PM 41.2097 -97.8767 75° East 445 512 39,000  Level Minneapolis Center
10:58PM 41.2406 -97.7186 75° East 443 510 39,000  Level Minneapolis Center
10:59PM 41.2708 -97.5600 76° East 443 510 39,000  Level Minneapolis Center
11:00PM 41.2944 -97.4331 76° East 443 510 39,000  Level Minneapolis Center
11:01PM 41.3336 -97.2317 75° East 442 509 39,000  Level Minneapolis Center
11:02PM 41.3622 -97.0736 76° East 441 507 39,000  Level Minneapolis Center
11:03PM 41.3908 -96.9172 76° East 437 503 39,000  Level Minneapolis Center
11:04PM 41.4203 -96.7594 76° East 437 503 39,000  Level Minneapolis Center
11:05PM 41.4489 -96.6039 76° East 434 499 39,000  Level Minneapolis Center
11:06PM 41.4775 -96.4467 76° East 433 498 39,000  Level Minneapolis Center
11:07PM 41.5081 -96.2689 77° East 437 503 39,000  Level Minneapolis Center
11:08PM 41.5361 -96.1122 76° East 434 499 39,000  Level Minneapolis Center
11:09PM 41.5639 -95.9556 77° East 434 499 39,000  Level Minneapolis Center
11:10PM 41.5917 -95.7981 77° East 435 501 39,000  Level Minneapolis Center
11:11PM 41.6194 -95.6364 77° East 434 499 39,000  Level Minneapolis Center
11:12PM 41.6442 -95.4903 77° East 438 504 39,000  Level Minneapolis Center
11:13PM 41.6761 -95.2989 77° East 439 505 39,000  Level Minneapolis Center
11:14PM 41.7022 -95.1414 77° East 436 502 39,000  Level Minneapolis Center
11:15PM 41.7350 -94.9508 77° East 438 504 39,000  Level Minneapolis Center
11:16PM 41.7600 -94.7900 78° East 439 505 39,000  Level Minneapolis Center
11:17PM 41.7867 -94.6311 77° East 438 504 39,000  Level Minneapolis Center
11:18PM 41.8125 -94.4706 78° East 440 506 39,000  Level Minneapolis Center
11:19PM 41.8378 -94.3108 78° East 439 505 39,000  Level Minneapolis Center
11:20PM 41.8639 -94.1511 78° East 439 505 39,000  Level Minneapolis Center
11:22PM 41.8889 -93.9914 78° East 438 504 39,000  Level Minneapolis Center
11:23PM 41.9153 -93.8269 78° East 440 506 39,000  Level Minneapolis Center
11:24PM 41.9392 -93.6658 79° East 442 509 39,000  Level Minneapolis Center
11:25PM 41.9669 -93.4853 78° East 444 511 39,000  Level Minneapolis Center
11:26PM 41.9922 -93.3253 78° East 443 510 39,000  Level Minneapolis Center
11:27PM 42.0161 -93.1636 79° East 444 511 39,000  Level Minneapolis Center
11:28PM 42.0400 -93.0008 79° East 446 513 39,000  Level Minneapolis Center
11:29PM 42.0633 -92.8383 79° East 447 514 39,000  Level Minneapolis Center
11:30PM 42.0864 -92.6764 79° East 446 513 39,000  Level Minneapolis Center
11:30PM 42.1056 -92.5436 79° East 449 517 39,000  Level Chicago Center
11:31PM 42.1292 -92.3814 79° East 447 514 39,000  Level Chicago Center
11:32PM 42.1336 -92.3494 79° East 448 516 39,000  Level Minneapolis Center
11:33PM 42.1597 -92.1544 80° East 447 514 39,000  Level Minneapolis Center
11:33PM 42.1739 -92.0586 79° East 441 507 39,000  Level Chicago Center
11:34PM 42.1961 -91.8975 79° East 442 509 39,000  Level Chicago Center
11:35PM 42.2169 -91.7403 80° East 434 499 39,000  Level Chicago Center
11:36PM 42.2431 -91.5494 79° East 436 502 39,000  Level Chicago Center
11:37PM 42.2639 -91.3914 80° East 435 501 39,000  Level Chicago Center
11:39PM 42.2844 -91.2331 80° East 436 502 39,000  Level Chicago Center
11:40PM 42.3053 -91.0753 80° East 433 498 39,000  Level Chicago Center
11:41PM 42.3233 -90.9183 81° East 430 495 39,000  Level Chicago Center
11:42PM 42.3447 -90.7597 80° East 433 498 39,000  Level Chicago Center
11:43PM 42.3642 -90.5989 81° East 437 503 39,000  Level Chicago Center
11:44PM 42.3847 -90.4397 80° East 437 503 39,000  Level Chicago Center
11:45PM 42.4072 -90.2478 81° East 436 502 39,000  Level Chicago Center
11:46PM 42.4264 -90.0872 81° East 437 503 39,000  Level Chicago Center
11:47PM 42.4456 -89.9275 81° East 435 501 39,000  Level Chicago Center
11:48PM 42.4647 -89.7703 81° East 434 499 39,000  Level Chicago Center
11:49PM 42.4828 -89.6103 81° East 432 497 39,000  Level Chicago Center
11:50PM 42.5011 -89.4500 81° East 433 498 39,000  Level Chicago Center
11:51PM 42.5231 -89.2647 81° East 430 495 39,000  Level Chicago Center
11:52PM 42.5406 -89.1033 82° East 432 497 39,000  Level Chicago Center
11:53PM 42.5583 -88.9417 81° East 433 498 39,000  Level Chicago Center
11:54PM 42.5761 -88.7803 81° East 435 501 39,000 -420 Level Chicago Center
11:55PM 42.5928 -88.6181 82° East 436 502 38,200 -660 Descending Chicago Center
11:57PM 42.6275 -88.2942 82° East 433 498 37,000 -420 Descending Chicago Center
11:58PM 42.6439 -88.1383 82° East 426 490 37,000  Level Chicago Center
11:59PM 42.6597 -87.9819 82° East 422 486 37,000 -660 Level Chicago Center
12:00AM 42.6756 -87.8231 82° East 424 488 35,700 -2,220 Descending Chicago Center
12:01AM 42.6942 -87.6367 82° East 427 491 32,500 -2,940 Descending Chicago Center
12:02AM 42.7089 -87.4778 83° East 426 490 29,800 -2,580 Descending Chicago Center
12:03AM 42.7233 -87.3306 82° East 426 490 27,300 -2,460 Descending Chicago Center
12:04AM 42.7383 -87.1778 82° East 415 478 24,900 -2,220 Descending Chicago Center
12:05AM 42.7503 -87.0472 83° East 361 415 22,900 -1,320 Descending Chicago Center
12:07AM 42.7722 -86.8050 83° East 322 371 21,000 -1,020 Descending Chicago Center
12:09AM 42.7944 -86.5625 83° East 317 365 18,900 -1,920 Descending Chicago Center
12:10AM 42.8058 -86.4225 84° East 313 360 15,300 -3,120 Descending Chicago Center
12:11AM 42.8158 -86.3092 83° East 305 351 12,600 -2,640 Descending Chicago Center
12:12AM 42.8247 -86.2008 84° East 295 339 10,000 -1,860 Descending Chicago Center
12:13AM 42.8336 -86.0992 83° East 276 318 8,900 -660 Descending Chicago Center
12:15AM 42.8917 -85.9378 64° Northeast 285 328 8,000 -300 Descending Chicago Center
12:16AM 42.9733 -85.9364 North 294 338 8,000 -420 Level Chicago Center
12:17AM 43.0669 -85.9339 North 294 338 7,200 -540 Descending Chicago Center
12:18AM 43.1089 -86.0056 309° West 305 351 7,000 -120 Descending Chicago Center
12:19AM 43.0514 -86.0392 203° Southwest 266 306 7,000  Level Chicago Center
12:20AM 42.9886 -85.9964 154° Southeast 266 306 7,000 -300 Level Chicago Center
12:21AM 42.9264 -85.9556 154° Southeast 256 295 6,500 -840 Descending Chicago Center
12:22AM 42.8628 -85.9061 150° Southeast 230 265 5,400 -1,020 Descending Chicago Center
12:23AM 42.8528 -85.8303 100° East 209 241 4,500 -660 Descending Chicago Center
12:24AM 42.8608 -85.7586 81° East 199 229 4,100 -720 Descending Chicago Center
12:25AM 42.8678 -85.6917 82° East 183 211 3,100 -540 Descending Chicago Center
12:26AM 42.8431 -85.6569 134° Southeast 180 207 3,100 -60 Level Chicago Center
12:27AM 42.7997 -85.6681 191° South 177 204 3,000 -60 Descending Chicago Center
12:28AM 42.8389 -85.6956 333° Northwest 212 244 3,000 -300 Level Chicago Center
12:29AM 42.8653 -85.6469 53° Northeast 175 201 2,500 -600 Descending Chicago Center
12:30AM 42.8700 -85.6011 82° East 141 162 1,800 -660 Descending Chicago Center
12:31AM 42.8742 -85.5564 83° East 127 146 1,200 -480 Descending Chicago Center
12:32AM 42.8808 -85.5028 80° East 125 144 900 -300 Descending Chicago Center
12:34AM 42.8667 -85.5167 90° East  Level FlightAware Approximate